Time;durP1;ratioP1;P1;durP2;ratioP2;P2;SDS_P1;SDS_P2;PMS_P1;PMS_P2;Temp;Humidity;BMP_temperature;BMP_pressure;BME280_temperature;BME280_humidity;BME280_pressure;Samples;Min_cycle;Max_cycle;Signal;HPM_P1;HPM_P2
2024/05/08 00:00:44;;;;;;;4.95;2.75;;;;;;;13.20;88.04;96311.28;5338653;26;20009;-62
2024/05/08 00:03:10;;;;;;;5.45;3.17;;;;;;;13.45;85.92;96310.50;5336297;26;20009;-63
2024/05/08 00:05:35;;;;;;;4.53;2.63;;;;;;;13.25;87.14;96309.47;5338280;26;20337;-62
2024/05/08 00:08:01;;;;;;;4.20;3.08;;;;;;;13.47;85.73;96309.19;5337625;26;20019;-63
2024/05/08 00:10:26;;;;;;;3.42;2.63;;;;;;;13.21;87.64;96307.56;5338740;26;20457;-62
2024/05/08 00:12:51;;;;;;;9.93;3.53;;;;;;;13.33;86.13;96308.13;5334463;26;20782;-62
2024/05/08 00:15:17;;;;;;;3.35;2.72;;;;;;;13.27;86.47;96303.88;5337523;26;20358;-62
2024/05/08 00:17:42;;;;;;;6.00;3.25;;;;;;;13.44;85.95;96309.69;5337830;26;20053;-62
2024/05/08 00:20:07;;;;;;;4.93;3.35;;;;;;;13.30;86.05;96320.06;5337475;26;20052;-62
2024/05/08 00:22:33;;;;;;;3.47;3.03;;;;;;;13.35;86.50;96316.59;5337964;26;20013;-62
2024/05/08 00:24:58;;;;;;;4.75;3.20;;;;;;;13.28;85.58;96314.22;5337037;26;20090;-63
2024/05/08 00:27:23;;;;;;;5.43;3.55;;;;;;;13.20;85.76;96306.00;5336234;26;22042;-63
2024/05/08 00:29:50;;;;;;;4.50;3.00;;;;;;;13.43;86.55;96316.06;5336779;26;20021;-62
2024/05/08 00:32:15;;;;;;;7.93;3.47;;;;;;;13.15;87.32;96311.28;5336889;26;20403;-62
2024/05/08 00:34:41;;;;;;;5.90;3.40;;;;;;;13.38;86.22;96305.47;5336904;26;20008;-62
2024/05/08 00:37:06;;;;;;;5.32;3.53;;;;;;;13.29;86.24;96310.53;5337366;26;20023;-63
2024/05/08 00:39:31;;;;;;;6.82;4.32;;;;;;;13.41;85.64;96310.22;5337176;26;20023;-62
2024/05/08 00:41:57;;;;;;;7.50;4.25;;;;;;;13.20;86.63;96304.13;5335870;26;20023;-62
2024/05/08 00:44:22;;;;;;;5.07;3.72;;;;;;;13.27;85.74;96310.00;5337323;26;20012;-62
2024/05/08 00:46:48;;;;;;;7.05;3.85;;;;;;;13.37;86.00;96306.53;5337022;26;20074;-62
2024/05/08 00:49:15;;;;;;;4.03;2.75;;;;;;;13.35;86.72;96312.09;5339117;26;20015;-63
2024/05/08 00:51:43;;;;;;;6.57;3.88;;;;;;;13.38;85.72;96313.44;5337270;26;20009;-63
2024/05/08 00:54:08;;;;;;;9.85;3.97;;;;;;;13.47;84.58;96314.47;5342699;26;20033;-62
2024/05/08 00:56:35;;;;;;;4.85;3.53;;;;;;;13.33;85.16;96313.44;5341323;26;20005;-63
2024/05/08 00:59:01;;;;;;;6.85;4.15;;;;;;;13.39;84.81;96312.34;5339462;26;20020;-62
2024/05/08 01:01:28;;;;;;;7.40;4.43;;;;;;;13.29;86.09;96312.38;5340859;26;20012;-62
2024/05/08 01:03:53;;;;;;;5.47;3.45;;;;;;;13.43;86.75;96305.47;5340750;26;20074;-62
2024/05/08 01:06:19;;;;;;;7.47;3.95;;;;;;;13.23;87.71;96308.16;5339050;26;20016;-62
2024/05/08 01:08:47;;;;;;;6.13;4.20;;;;;;;13.31;85.60;96312.91;5339918;26;20004;-62
2024/05/08 01:11:12;;;;;;;6.70;3.90;;;;;;;13.16;86.33;96311.03;5338248;26;20040;-62
2024/05/08 01:13:37;;;;;;;11.17;4.27;;;;;;;13.35;85.44;96306.00;5340611;26;20009;-63
2024/05/08 01:16:03;;;;;;;6.15;4.30;;;;;;;13.27;87.47;96307.34;5340269;26;20243;-62
2024/05/08 01:18:30;;;;;;;5.93;3.97;;;;;;;13.31;86.68;96302.28;5340465;26;20023;-62
2024/05/08 01:20:55;;;;;;;7.63;4.38;;;;;;;13.24;86.75;96305.22;5339392;26;20024;-63
2024/05/08 01:23:26;;;;;;;7.90;4.65;;;;;;;13.32;86.01;96309.19;5336855;26;20044;-61
2024/05/08 01:25:55;;;;;;;7.65;4.47;;;;;;;13.22;85.74;96306.53;5340630;26;20013;-62
2024/05/08 01:28:20;;;;;;;7.07;4.85;;;;;;;13.19;85.36;96312.34;5339809;26;20086;-62
2024/05/08 01:30:45;;;;;;;7.18;4.50;;;;;;;13.18;87.49;96316.06;5340517;26;20021;-62
2024/05/08 01:33:11;;;;;;;7.28;4.57;;;;;;;12.95;87.67;96325.34;5339343;26;20017;-62
2024/05/08 01:35:36;;;;;;;8.02;5.25;;;;;;;13.18;86.31;96321.38;5342635;26;20023;-61
2024/05/08 01:38:02;;;;;;;8.63;4.75;;;;;;;13.21;86.27;96323.47;5340047;26;20020;-63
2024/05/08 01:40:27;;;;;;;7.15;4.43;;;;;;;13.01;87.51;96326.91;5341565;26;20040;-62
2024/05/08 01:42:52;;;;;;;7.22;4.78;;;;;;;13.03;87.27;96322.13;5340523;26;20013;-62
2024/05/08 01:45:19;;;;;;;9.70;4.82;;;;;;;12.95;88.62;96328.78;5340652;26;20009;-62
2024/05/08 01:47:44;;;;;;;7.50;5.00;;;;;;;12.81;90.33;96333.78;5339328;26;20082;-62
2024/05/08 01:50:10;;;;;;;13.23;6.53;;;;;;;12.96;87.31;96330.38;5337062;26;20782;-63
2024/05/08 01:52:36;;;;;;;7.32;5.03;;;;;;;12.90;89.28;96331.44;5340812;26;20001;-62
2024/05/08 01:55:01;;;;;;;10.45;5.07;;;;;;;12.76;89.12;96335.66;5341361;26;20075;-62
2024/05/08 01:57:27;;;;;;;9.82;5.30;;;;;;;12.94;87.80;96337.78;5341326;26;20021;-62
2024/05/08 01:59:53;;;;;;;13.27;5.63;;;;;;;12.91;87.73;96332.22;5339712;26;20023;-62
2024/05/08 02:02:18;;;;;;;11.82;6.13;;;;;;;13.03;88.55;96338.84;5339563;26;20749;-62
2024/05/08 02:04:43;;;;;;;7.10;5.13;;;;;;;12.97;89.38;96331.16;5339222;26;20452;-62
2024/05/08 02:07:09;;;;;;;9.70;5.47;;;;;;;12.99;87.58;96337.78;5338216;26;20075;-62
2024/05/08 02:09:34;;;;;;;12.52;5.70;;;;;;;12.88;88.28;96341.47;5339781;26;20024;-62
2024/05/08 02:12:00;;;;;;;10.15;6.30;;;;;;;13.20;88.11;96335.13;5338663;26;20001;-63
2024/05/08 02:14:26;;;;;;;10.05;6.45;;;;;;;13.04;90.10;96337.00;5339581;26;20624;-62
2024/05/08 02:16:51;;;;;;;9.80;6.13;;;;;;;13.01;89.99;96333.00;5340555;26;20020;-62
2024/05/08 02:19:17;;;;;;;10.32;6.00;;;;;;;13.03;90.46;96346.81;5340367;26;20021;-61
2024/05/08 02:21:42;;;;;;;13.93;6.05;;;;;;;12.87;90.52;96341.75;5340996;26;20445;-62
2024/05/08 02:24:08;;;;;;;20.27;7.15;;;;;;;12.91;90.22;96343.59;5339439;26;20086;-62
2024/05/08 02:26:34;;;;;;;11.07;6.15;;;;;;;13.07;90.50;96350.50;5340005;26;20016;-62
2024/05/08 02:28:59;;;;;;;10.95;5.55;;;;;;;12.96;91.11;96348.09;5339751;26;20460;-62
2024/05/08 02:31:24;;;;;;;12.07;5.93;;;;;;;12.79;91.31;96338.56;5338734;26;20005;-62
2024/05/08 02:33:52;;;;;;;9.98;6.35;;;;;;;12.60;94.21;96342.78;5339345;26;20752;-63
2024/05/08 02:36:17;;;;;;;15.55;6.47;;;;;;;12.57;94.05;96344.06;5338806;26;20009;-62
2024/05/08 02:38:43;;;;;;;11.77;6.40;;;;;;;12.55;94.77;96346.19;5340417;26;20128;-62
2024/05/08 02:41:08;;;;;;;10.95;6.20;;;;;;;12.43;95.43;96345.63;5339262;26;20008;-62
2024/05/08 02:43:33;;;;;;;20.55;6.72;;;;;;;12.24;97.38;96347.16;5340432;26;20009;-62
2024/05/08 02:45:59;;;;;;;11.30;6.45;;;;;;;12.49;96.91;96344.56;5339114;26;20399;-63
2024/05/08 02:48:24;;;;;;;13.23;6.75;;;;;;;12.56;98.00;96350.44;5338162;26;20024;-62
2024/05/08 02:50:49;;;;;;;11.00;6.47;;;;;;;12.57;95.95;96349.38;5333345;26;20005;-62
2024/05/08 02:53:14;;;;;;;12.48;6.78;;;;;;;12.54;97.16;96344.59;5340115;26;20528;-62
2024/05/08 02:55:40;;;;;;;17.55;7.80;;;;;;;12.49;98.02;96352.50;5340932;26;20021;-61
2024/05/08 02:58:05;;;;;;;12.18;6.40;;;;;;;12.27;98.51;96351.94;5339159;26;20028;-62
2024/05/08 03:00:31;;;;;;;16.00;7.13;;;;;;;12.56;98.30;96347.78;5340379;26;20317;-62
2024/05/08 03:02:56;;;;;;;16.40;7.18;;;;;;;12.46;97.65;96358.34;5339281;26;20090;-62
2024/05/08 03:05:21;;;;;;;15.30;7.97;;;;;;;12.54;96.93;96351.72;5339856;26;20001;-62
2024/05/08 03:07:46;;;;;;;15.82;6.95;;;;;;;12.42;98.18;96351.97;5339392;26;20024;-62
2024/05/08 03:10:12;;;;;;;15.98;6.88;;;;;;;12.72;95.45;96359.19;5339864;26;20009;-62
2024/05/08 03:12:37;;;;;;;11.02;6.55;;;;;;;12.58;96.44;96356.25;5337912;26;20023;-63
2024/05/08 03:15:03;;;;;;;11.05;6.78;;;;;;;12.71;93.89;96356.81;5339596;26;20013;-62
2024/05/08 03:17:28;;;;;;;12.20;6.05;;;;;;;12.45;97.05;96359.38;5340236;26;20012;-61
2024/05/08 03:19:53;;;;;;;12.02;7.63;;;;;;;12.53;97.35;96364.19;5336200;26;20008;-61
2024/05/08 03:22:19;;;;;;;13.75;6.85;;;;;;;12.47;96.78;96354.63;5340603;26;20082;-61
2024/05/08 03:24:45;;;;;;;12.07;7.07;;;;;;;12.62;96.92;96361.81;5337663;26;20008;-62
2024/05/08 03:27:10;;;;;;;12.93;7.40;;;;;;;12.67;96.47;96363.69;5339596;26;20078;-62
2024/05/08 03:29:35;;;;;;;14.70;7.47;;;;;;;12.72;96.76;96366.34;5338777;26;20419;-63
2024/05/08 03:32:01;;;;;;;13.95;7.18;;;;;;;12.77;94.53;96369.78;5338823;26;20535;-62
2024/05/08 03:34:26;;;;;;;12.73;6.88;;;;;;;12.87;94.45;96366.38;5339439;26;20019;-61
2024/05/08 03:36:51;;;;;;;9.93;6.60;;;;;;;12.71;96.09;96365.56;5339044;26;20013;-62
2024/05/08 03:39:17;;;;;;;13.00;6.38;;;;;;;12.69;96.90;96378.25;5339132;26;20038;-62
2024/05/08 03:41:43;;;;;;;11.13;7.03;;;;;;;12.81;95.69;96378.81;5339144;26;20442;-62
2024/05/08 03:44:09;;;;;;;12.77;7.00;;;;;;;12.63;97.27;96374.00;5339536;26;20028;-62
2024/05/08 03:46:37;;;;;;;14.23;7.75;;;;;;;12.55;96.10;96382.44;5338325;26;20447;-62
2024/05/08 03:49:02;;;;;;;15.50;7.25;;;;;;;12.49;97.07;96389.56;5339399;26;20036;-62
2024/05/08 03:51:28;;;;;;;16.60;7.18;;;;;;;12.69;98.13;96388.81;5339027;26;20111;-63
2024/05/08 03:53:53;;;;;;;15.15;7.55;;;;;;;12.74;96.10;96388.03;5337132;26;20005;-61
2024/05/08 03:56:18;;;;;;;14.38;7.60;;;;;;;12.60;97.54;96385.13;5338121;26;20073;-61
2024/05/08 03:58:44;;;;;;;11.90;7.45;;;;;;;12.69;95.83;96388.81;5339117;26;20020;-62
2024/05/08 04:01:09;;;;;;;12.93;7.65;;;;;;;12.76;96.29;96392.03;5338050;26;20301;-61
2024/05/08 04:03:34;;;;;;;17.85;8.15;;;;;;;12.53;97.63;96395.94;5339746;26;20012;-62
2024/05/08 04:06:00;;;;;;;11.80;7.35;;;;;;;12.57;99.43;96391.72;5337723;26;20024;-62
2024/05/08 04:08:25;;;;;;;14.82;7.88;;;;;;;12.45;97.95;96399.06;5333232;26;20056;-61
2024/05/08 04:10:51;;;;;;;16.80;7.35;;;;;;;12.43;97.28;96411.00;5338880;26;20356;-62
2024/05/08 04:13:16;;;;;;;19.67;8.13;;;;;;;12.55;97.75;96404.44;5337822;26;20016;-62
2024/05/08 04:15:42;;;;;;;15.23;7.85;;;;;;;12.32;99.00;96410.16;5339282;26;20368;-62
2024/05/08 04:18:10;;;;;;;14.70;7.78;;;;;;;12.37;100.00;96412.81;5337519;26;20008;-62
2024/05/08 04:20:36;;;;;;;14.27;8.30;;;;;;;12.36;99.31;96415.72;5339142;26;20032;-62
2024/05/08 04:23:01;;;;;;;12.02;7.22;;;;;;;12.59;99.03;96421.38;5339966;26;20024;-62
2024/05/08 04:25:27;;;;;;;12.07;7.82;;;;;;;12.64;98.78;96414.50;5341784;26;20020;-62
2024/05/08 04:27:52;;;;;;;16.42;9.13;;;;;;;12.61;95.51;96422.97;5341362;26;20009;-62
2024/05/08 04:30:17;;;;;;;12.50;7.55;;;;;;;12.70;96.76;96426.72;5341254;26;20032;-62
2024/05/08 04:32:43;;;;;;;17.85;8.65;;;;;;;12.71;95.35;96428.31;5341358;26;20172;-61
2024/05/08 04:35:08;;;;;;;14.38;8.32;;;;;;;12.63;95.76;96436.75;5342358;26;20037;-60
2024/05/08 04:37:33;;;;;;;13.75;8.70;;;;;;;12.67;96.30;96435.97;5338558;26;20023;-62
2024/05/08 04:40:06;;;;;;;20.25;9.45;;;;;;;12.49;96.99;96437.22;5341487;26;20090;-61
2024/05/08 04:42:31;;;;;;;13.67;7.63;;;;;;;12.33;98.63;96439.00;5342738;26;20005;-61
2024/05/08 04:44:57;;;;;;;17.20;8.20;;;;;;;12.43;98.26;96448.03;5340500;26;20013;-62
2024/05/08 04:47:22;;;;;;;15.02;7.85;;;;;;;12.40;99.46;96441.41;5342042;26;20475;-61
2024/05/08 04:49:47;;;;;;;14.05;8.20;;;;;;;12.04;100.00;96443.88;5342787;26;20013;-61
2024/05/08 04:52:12;;;;;;;11.52;8.07;;;;;;;12.10;100.00;96452.63;5341379;26;20032;-61
2024/05/08 04:54:38;;;;;;;12.35;7.50;;;;;;;12.32;100.00;96455.13;5341446;26;20017;-61
2024/05/08 04:57:03;;;;;;;15.07;8.45;;;;;;;12.33;100.00;96456.72;5342340;26;20017;-61
2024/05/08 04:59:28;;;;;;;12.98;7.65;;;;;;;12.43;100.00;96451.47;5340833;26;20024;-61
2024/05/08 05:01:54;;;;;;;15.70;8.15;;;;;;;12.40;99.09;96451.19;5364771;26;20012;-61
2024/05/08 05:04:19;;;;;;;15.00;8.38;;;;;;;12.43;98.96;96458.63;5341421;26;20020;-61
2024/05/08 05:06:45;;;;;;;12.68;6.85;;;;;;;12.43;99.08;96463.91;5342660;26;20009;-61
2024/05/08 05:09:11;;;;;;;13.57;6.82;;;;;;;12.36;98.39;96458.88;5340592;26;20013;-61
2024/05/08 05:11:37;;;;;;;11.75;6.78;;;;;;;12.51;98.68;96460.78;5341608;26;20001;-61
2024/05/08 05:14:02;;;;;;;16.80;7.45;;;;;;;12.54;98.78;96469.00;5340844;26;20083;-61
2024/05/08 05:16:27;;;;;;;10.20;6.10;;;;;;;12.50;97.46;96464.47;5340161;26;20016;-61
2024/05/08 05:18:53;;;;;;;11.65;5.88;;;;;;;12.30;98.29;96465.16;5337358;26;20008;-62
2024/05/08 05:21:18;;;;;;;10.27;6.35;;;;;;;12.26;99.61;96469.38;5337107;26;20005;-62
2024/05/08 05:23:44;;;;;;;10.57;6.60;;;;;;;12.30;100.00;96465.97;5339641;26;20009;-60
2024/05/08 05:26:10;;;;;;;12.00;6.38;;;;;;;12.35;99.33;96467.84;5340298;26;20004;-59
2024/05/08 05:28:35;;;;;;;10.35;6.15;;;;;;;12.53;98.34;96467.41;5341016;26;20025;-60
2024/05/08 05:33:48;;;;;;;10.35;6.45;;;;;;;12.57;99.77;96471.13;5340547;26;20407;-60
2024/05/08 05:36:17;;;;;;;9.85;5.80;;;;;;;12.46;98.44;96480.09;5338595;26;20048;-60
2024/05/08 05:38:42;;;;;;;11.57;6.18;;;;;;;12.43;98.22;96485.88;5341420;26;20024;-60
2024/05/08 05:41:08;;;;;;;10.90;5.72;;;;;;;12.36;100.00;96479.22;5340064;26;20008;-60
2024/05/08 05:46:20;;;;;;;10.18;5.75;;;;;;;12.65;97.14;96482.25;5339795;26;20420;-59
2024/05/08 05:48:46;;;;;;;12.75;5.38;;;;;;;12.68;96.43;96481.75;5340713;26;20001;-60
2024/05/08 05:51:11;;;;;;;11.63;6.65;;;;;;;12.51;97.71;96492.56;5329462;26;20024;-60
2024/05/08 05:53:36;;;;;;;11.35;6.30;;;;;;;12.44;98.71;96498.06;5340988;26;20029;-61
2024/05/08 05:56:04;;;;;;;10.35;6.25;;;;;;;12.46;99.67;96495.97;5329631;26;20062;-60
2024/05/08 05:58:30;;;;;;;10.13;6.80;;;;;;;12.55;98.34;96498.91;5340473;26;20085;-59
2024/05/08 06:00:55;;;;;;;10.02;6.05;;;;;;;12.67;99.07;96507.44;5339879;26;20016;-61
2024/05/08 06:03:20;;;;;;;12.48;6.50;;;;;;;12.68;98.57;96513.53;5340397;26;20089;-61
2024/05/08 06:05:46;;;;;;;15.95;6.72;;;;;;;12.55;98.81;96507.66;5339839;26;20082;-60
2024/05/08 06:08:11;;;;;;;17.15;8.40;;;;;;;12.80;95.85;96506.97;5333851;26;20009;-62
2024/05/08 06:10:36;;;;;;;16.10;8.32;;;;;;;12.78;97.22;96511.72;5339203;26;20762;-60
2024/05/08 06:13:02;;;;;;;14.18;8.50;;;;;;;12.79;96.88;96518.63;5336394;26;20017;-60
2024/05/08 06:15:27;;;;;;;11.90;7.07;;;;;;;12.74;98.17;96517.78;5340701;26;20009;-60
2024/05/08 06:17:53;;;;;;;13.73;6.57;;;;;;;12.83;95.93;96513.59;5339837;26;20092;-60
2024/05/08 06:20:18;;;;;;;16.95;8.25;;;;;;;12.90;94.28;96519.47;5339311;26;20009;-60
2024/05/08 06:22:43;;;;;;;19.45;7.72;;;;;;;12.96;94.89;96529.00;5339742;26;20012;-60
2024/05/08 06:25:09;;;;;;;13.50;7.78;;;;;;;12.84;97.10;96520.50;5340573;26;20091;-61
2024/05/08 06:27:34;;;;;;;13.73;7.70;;;;;;;12.73;96.63;96524.16;5340305;26;20005;-60
2024/05/08 06:29:59;;;;;;;18.65;8.75;;;;;;;12.94;96.18;96533.78;5339508;26;20402;-60
2024/05/08 06:32:25;;;;;;;18.58;8.02;;;;;;;12.94;98.19;96533.78;5340170;26;20024;-60
2024/05/08 06:34:50;;;;;;;16.95;9.00;;;;;;;12.90;95.51;96538.00;5340713;26;20658;-60
2024/05/08 06:37:15;;;;;;;14.13;7.28;;;;;;;12.95;95.32;96543.31;5338120;26;20090;-60
2024/05/08 06:39:41;;;;;;;18.02;9.10;;;;;;;12.59;97.29;96545.78;5340160;26;20020;-60
2024/05/08 06:42:07;;;;;;;13.88;7.93;;;;;;;12.79;98.89;96541.63;5340819;26;20021;-61
2024/05/08 06:44:32;;;;;;;14.68;8.63;;;;;;;12.91;97.02;96554.69;5339583;26;20016;-60
2024/05/08 06:46:57;;;;;;;17.33;8.82;;;;;;;13.00;96.58;96555.78;5339040;26;20514;-61
2024/05/08 06:49:23;;;;;;;13.85;8.07;;;;;;;12.90;95.58;96559.19;5337135;26;20001;-59
2024/05/08 06:51:48;;;;;;;14.35;8.75;;;;;;;12.99;94.83;96556.84;5329965;26;20455;-60
2024/05/08 06:54:13;;;;;;;15.00;9.27;;;;;;;12.79;97.83;96557.53;5340087;26;20367;-60
2024/05/08 06:56:39;;;;;;;18.48;9.60;;;;;;;12.99;97.56;96559.50;5339974;26;20009;-61
2024/05/08 06:59:07;;;;;;;14.32;9.52;;;;;;;13.17;98.46;96553.72;5340228;26;20370;-60
2024/05/08 07:01:32;;;;;;;22.23;10.18;;;;;;;13.18;95.95;96565.13;5338942;26;20004;-60
2024/05/08 07:03:57;;;;;;;21.05;10.35;;;;;;;12.94;95.90;96564.78;5340048;26;20031;-60
2024/05/08 07:06:22;;;;;;;18.85;9.68;;;;;;;13.26;97.17;96568.09;5339150;26;20004;-60
2024/05/08 07:08:48;;;;;;;15.30;9.20;;;;;;;13.30;97.17;96565.72;5339385;26;20005;-59
2024/05/08 07:11:14;;;;;;;19.02;10.52;;;;;;;13.47;94.30;96573.47;5337028;26;20005;-60
2024/05/08 07:13:39;;;;;;;21.25;11.48;;;;;;;13.43;95.34;96578.50;5335266;26;20048;-60
2024/05/08 07:16:05;;;;;;;18.65;10.82;;;;;;;13.21;95.11;96585.81;5327983;26;20013;-60
2024/05/08 07:18:30;;;;;;;19.65;10.30;;;;;;;13.18;96.69;96583.69;5337400;26;20013;-60
2024/05/08 07:20:56;;;;;;;16.92;9.60;;;;;;;13.10;96.61;96577.81;5332599;26;20016;-61
2024/05/08 07:23:22;;;;;;;23.65;11.15;;;;;;;13.24;96.57;96572.88;5335544;26;20031;-60
2024/05/08 07:25:48;;;;;;;16.60;9.52;;;;;;;13.34;94.55;96580.06;5337073;26;20452;-60
2024/05/08 07:28:16;;;;;;;19.08;9.57;;;;;;;13.28;96.00;96581.91;5335701;26;20012;-61
2024/05/08 07:30:44;;;;;;;22.27;10.55;;;;;;;13.43;95.80;96583.78;5347349;26;20082;-60
2024/05/08 07:33:10;;;;;;;20.23;10.52;;;;;;;13.46;93.06;96587.75;5334573;26;20349;-60
2024/05/08 07:35:35;;;;;;;17.60;9.57;;;;;;;13.56;93.35;96588.59;5336299;26;20009;-61
2024/05/08 07:38:01;;;;;;;20.92;11.63;;;;;;;13.84;93.32;96586.50;5336823;26;20009;-59
2024/05/08 07:40:26;;;;;;;17.95;9.93;;;;;;;13.75;93.44;96593.38;5336831;26;20019;-60
2024/05/08 07:42:52;;;;;;;21.70;11.18;;;;;;;13.76;93.89;96595.00;5337089;26;20340;-60
2024/05/08 07:45:19;;;;;;;20.45;9.80;;;;;;;13.53;92.72;96589.13;5336463;26;20369;-61
2024/05/08 07:47:46;;;;;;;18.60;9.85;;;;;;;13.24;94.92;96595.91;5340293;26;20016;-60
2024/05/08 07:50:11;;;;;;;20.58;10.38;;;;;;;13.27;97.61;96603.34;5338313;26;20040;-61
2024/05/08 07:52:37;;;;;;;15.95;8.57;;;;;;;13.60;93.68;96604.75;5335684;26;20019;-60
2024/05/08 07:55:02;;;;;;;19.27;10.82;;;;;;;13.58;93.20;96602.38;5338863;26;20755;-60
2024/05/08 07:57:27;;;;;;;21.17;10.30;;;;;;;13.65;93.78;96606.63;5337702;26;20021;-60
2024/05/08 07:59:53;;;;;;;19.45;9.98;;;;;;;13.59;93.60;96611.94;5341061;26;20012;-60
2024/05/08 08:02:18;;;;;;;18.60;9.40;;;;;;;13.73;92.54;96606.13;5342124;26;20098;-59
2024/05/08 08:04:43;;;;;;;15.43;9.07;;;;;;;13.62;93.97;96601.88;5341500;26;20809;-61
2024/05/08 08:07:09;;;;;;;19.35;9.15;;;;;;;13.63;92.53;96616.72;5353262;26;20096;-60
2024/05/08 08:09:34;;;;;;;17.67;9.48;;;;;;;13.74;92.71;96615.69;5342403;26;20304;-61
2024/05/08 08:11:59;;;;;;;20.58;9.85;;;;;;;13.57;94.60;96616.72;5342419;26;20028;-60
2024/05/08 08:14:25;;;;;;;22.05;8.98;;;;;;;13.49;94.96;96611.91;5339881;26;20036;-60
2024/05/08 08:16:50;;;;;;;18.33;9.73;;;;;;;13.65;95.27;96615.38;5342577;26;20008;-60
2024/05/08 08:19:15;;;;;;;14.35;8.00;;;;;;;13.73;93.85;96624.69;5341879;26;20345;-60
2024/05/08 08:21:40;;;;;;;18.13;8.95;;;;;;;13.64;94.05;96623.59;5339722;26;20013;-61
2024/05/08 08:24:06;;;;;;;19.92;8.85;;;;;;;13.71;94.67;96618.88;5341131;26;20464;-61
2024/05/08 08:26:31;;;;;;;17.05;8.55;;;;;;;13.44;94.33;96630.44;5339942;26;20025;-61
2024/05/08 08:28:56;;;;;;;13.82;7.40;;;;;;;13.57;94.23;96629.16;5341079;26;20453;-61
2024/05/08 08:31:21;;;;;;;16.40;9.75;;;;;;;13.57;95.21;96627.31;5340476;26;20012;-61
2024/05/08 08:33:47;;;;;;;18.23;9.63;;;;;;;13.91;94.75;96629.50;5341503;26;20793;-61
2024/05/08 08:36:13;;;;;;;16.52;8.85;;;;;;;13.68;92.12;96622.03;5340334;26;20017;-61
2024/05/08 08:38:38;;;;;;;15.82;8.40;;;;;;;13.45;94.31;96631.25;5339654;26;20506;-61
2024/05/08 08:41:17;;;;;;;13.52;7.70;;;;;;;13.58;95.50;96631.56;5341543;26;20086;-61
2024/05/08 08:43:43;;;;;;;16.85;8.75;;;;;;;13.43;94.74;96626.22;5341779;26;20337;-61
2024/05/08 08:46:11;;;;;;;16.90;8.20;;;;;;;13.29;96.08;96630.38;5341451;26;20009;-62
2024/05/08 08:48:37;;;;;;;13.50;8.30;;;;;;;13.49;95.58;96627.81;5339194;26;20009;-62
2024/05/08 08:51:03;;;;;;;14.18;7.63;;;;;;;13.62;96.55;96633.69;5340862;26;20062;-61
2024/05/08 08:53:29;;;;;;;15.52;8.60;;;;;;;13.64;95.16;96642.97;5341963;26;20015;-61
2024/05/08 08:56:04;;;;;;;14.50;8.10;;;;;;;13.70;94.60;96634.00;5333670;26;20017;-61
2024/05/08 08:58:31;;;;;;;16.40;7.95;;;;;;;13.68;95.00;96644.03;5337132;26;20743;-61
2024/05/08 09:01:03;;;;;;;16.02;8.52;;;;;;;13.80;95.40;96641.97;5339657;26;20819;-61
2024/05/08 09:03:29;;;;;;;14.18;8.32;;;;;;;13.77;92.78;96641.69;5337484;26;20078;-61
2024/05/08 09:05:54;;;;;;;16.27;7.72;;;;;;;13.68;93.91;96651.22;5341705;26;20033;-61
2024/05/08 09:08:20;;;;;;;15.90;7.80;;;;;;;13.86;93.02;96650.72;5340153;26;20487;-62
2024/05/08 09:10:51;;;;;;;17.67;7.10;;;;;;;13.69;93.02;96650.13;5341194;26;20458;-61
2024/05/08 09:13:16;;;;;;;14.63;7.75;;;;;;;13.54;94.96;96654.34;5340730;26;20001;-62
2024/05/08 09:15:41;;;;;;;14.02;7.90;;;;;;;13.76;93.45;96656.81;5340954;26;20028;-61
2024/05/08 09:18:07;;;;;;;16.85;7.95;;;;;;;13.74;93.22;96658.91;5340726;26;20001;-61
2024/05/08 09:20:32;;;;;;;10.57;7.22;;;;;;;13.52;92.47;96656.47;5341047;26;20013;-62
2024/05/08 09:22:57;;;;;;;17.25;7.85;;;;;;;13.40;95.26;96663.81;5337684;26;20699;-61
2024/05/08 09:25:23;;;;;;;14.35;8.20;;;;;;;13.69;95.31;96663.41;5341774;26;20012;-61
2024/05/08 09:27:48;;;;;;;11.55;7.20;;;;;;;13.47;94.94;96664.41;5340833;26;20017;-61
2024/05/08 09:30:13;;;;;;;15.00;7.93;;;;;;;13.64;94.79;96666.03;5339326;26;20025;-61
2024/05/08 09:32:39;;;;;;;13.30;7.38;;;;;;;13.80;93.96;96667.69;5339269;26;20337;-62
2024/05/08 09:35:08;;;;;;;12.07;7.18;;;;;;;13.87;93.47;96665.56;5340726;26;20313;-61
2024/05/08 09:37:33;;;;;;;14.75;7.57;;;;;;;13.57;94.52;96668.94;5337942;26;20013;-61
2024/05/08 09:39:59;;;;;;;15.27;7.50;;;;;;;13.53;95.35;96679.25;5338898;26;20009;-62
2024/05/08 09:42:26;;;;;;;11.20;7.40;;;;;;;13.54;94.88;96675.56;5339656;26;20027;-62
2024/05/08 09:44:51;;;;;;;13.70;7.50;;;;;;;13.76;93.49;96682.53;5339195;26;20020;-62
2024/05/08 09:47:18;;;;;;;14.98;7.75;;;;;;;13.67;93.58;96684.09;5340987;26;20526;-62
2024/05/08 09:50:02;;;;;;;14.95;7.30;;;;;;;13.56;95.13;96686.72;5338813;26;20005;-62
2024/05/08 09:52:30;;;;;;;14.70;7.38;;;;;;;13.60;93.49;96694.91;5338221;26;20041;-62
2024/05/08 09:55:00;;;;;;;16.25;7.15;;;;;;;13.49;95.96;96691.44;5338918;26;20013;-62
2024/05/08 09:57:25;;;;;;;13.30;6.95;;;;;;;13.51;96.01;96686.69;5338016;26;20021;-62
2024/05/08 09:59:52;;;;;;;17.33;6.60;;;;;;;13.45;94.53;96692.22;5337049;26;20384;-62
2024/05/08 10:02:19;;;;;;;14.45;7.53;;;;;;;13.53;94.39;96695.16;5339876;26;20107;-62
2024/05/08 10:04:46;;;;;;;14.65;7.60;;;;;;;13.29;96.99;96686.84;5339580;26;20008;-61
2024/05/08 10:07:11;;;;;;;14.13;7.82;;;;;;;13.35;99.11;96685.00;5340690;26;20005;-61
2024/05/08 10:09:41;;;;;;;12.30;7.38;;;;;;;13.38;95.72;96692.47;5338511;26;20013;-61
2024/05/08 10:12:13;;;;;;;19.58;8.88;;;;;;;13.17;96.36;96701.31;5338799;26;20048;-62
2024/05/08 10:14:39;;;;;;;19.10;9.03;;;;;;;13.17;96.65;96707.41;5338705;26;20013;-61
2024/05/08 10:17:20;;;;;;;14.50;8.23;;;;;;;13.35;97.12;96704.34;5340498;26;20118;-62
2024/05/08 10:19:47;;;;;;;14.30;7.65;;;;;;;13.16;98.88;96705.00;5337580;26;20019;-62
2024/05/08 10:22:25;;;;;;;18.30;8.85;;;;;;;13.42;97.54;96704.16;5339633;26;20095;-62
2024/05/08 10:24:51;;;;;;;12.10;7.80;;;;;;;13.46;96.97;96705.22;5338893;26;20001;-61
2024/05/08 10:27:23;;;;;;;15.60;7.82;;;;;;;13.76;95.80;96709.06;5340750;26;20024;-62
2024/05/08 10:29:49;;;;;;;15.05;7.65;;;;;;;13.81;94.26;96714.38;5336030;26;20012;-62
2024/05/08 10:32:14;;;;;;;15.43;8.85;;;;;;;13.93;92.36;96714.94;5340269;26;20020;-61
2024/05/08 10:34:43;;;;;;;16.58;8.48;;;;;;;13.93;91.68;96714.94;5333931;26;20532;-61
2024/05/08 10:37:08;;;;;;;13.45;8.13;;;;;;;13.76;92.86;96709.06;5341160;26;20004;-61
2024/05/08 10:39:33;;;;;;;21.65;8.73;;;;;;;13.80;93.69;96715.44;5339689;26;20024;-62
2024/05/08 10:41:59;;;;;;;18.90;8.40;;;;;;;13.67;93.39;96715.91;5339609;26;20015;-62
2024/05/08 10:44:24;;;;;;;16.48;8.52;;;;;;;13.67;93.92;96715.91;5338868;26;20012;-62
2024/05/08 10:46:51;;;;;;;14.48;8.15;;;;;;;13.54;94.78;96710.00;5340296;26;20004;-62
2024/05/08 10:49:16;;;;;;;16.23;9.05;;;;;;;13.74;94.96;96716.47;5339211;26;20388;-62
2024/05/08 10:51:42;;;;;;;19.67;9.05;;;;;;;13.94;93.08;96721.03;5339460;26;20009;-61
2024/05/08 10:54:14;;;;;;;20.00;8.65;;;;;;;13.98;90.89;96722.91;5340683;26;20028;-61
2024/05/08 10:56:42;;;;;;;14.32;8.50;;;;;;;13.76;93.06;96717.81;5335312;26;20004;-61
2024/05/08 10:59:08;;;;;;;20.67;8.98;;;;;;;13.83;94.33;96722.84;5326907;26;20047;-61
2024/05/08 11:01:47;;;;;;;17.08;9.02;;;;;;;13.62;94.99;96722.00;5326680;26;20010;-60
2024/05/08 11:04:26;;;;;;;12.90;8.50;;;;;;;13.59;95.22;96718.00;5332753;26;20016;-61
2024/05/08 11:07:05;;;;;;;15.70;8.52;;;;;;;13.37;94.89;96725.31;5334301;26;20005;-61
2024/05/08 11:09:44;;;;;;;15.02;8.95;;;;;;;13.47;96.24;96727.22;5339631;26;20042;-61
2024/05/08 11:12:14;;;;;;;19.13;8.13;;;;;;;13.50;95.78;96724.84;5329073;26;20455;-62
2024/05/08 11:14:41;;;;;;;19.10;8.75;;;;;;;13.42;96.17;96733.31;5331211;26;20009;-61
2024/05/08 11:17:06;;;;;;;18.90;7.68;;;;;;;13.34;95.60;96734.56;5337691;26;20001;-62
2024/05/08 11:19:31;;;;;;;19.52;9.23;;;;;;;13.34;95.79;96728.47;5339517;26;20019;-61
2024/05/08 11:21:57;;;;;;;15.30;8.53;;;;;;;13.48;93.75;96729.63;5325520;26;20021;-61
2024/05/08 11:24:22;;;;;;;16.10;8.38;;;;;;;13.55;94.19;96722.22;5339628;26;20358;-61
2024/05/08 11:26:47;;;;;;;14.88;8.75;;;;;;;13.37;94.84;96738.59;5324096;26;20021;-61